sensor_id;sensor_type;location;lat;lon;timestamp;temperature;humidity
16907;DHT22;8570;52.380;4.654;2022-08-25T00:04:01;23.00;99.90
16907;DHT22;8570;52.380;4.654;2022-08-25T00:09:04;23.00;99.90
16907;DHT22;8570;52.380;4.654;2022-08-25T00:14:11;22.90;99.90
16907;DHT22;8570;52.380;4.654;2022-08-25T00:19:18;22.90;99.90
16907;DHT22;8570;52.380;4.654;2022-08-25T00:24:20;22.80;99.90
16907;DHT22;8570;52.380;4.654;2022-08-25T00:29:24;22.80;99.90
16907;DHT22;8570;52.380;4.654;2022-08-25T00:34:33;22.70;99.90
16907;DHT22;8570;52.380;4.654;2022-08-25T00:39:36;22.70;99.90
16907;DHT22;8570;52.380;4.654;2022-08-25T00:44:40;22.70;99.90
16907;DHT22;8570;52.380;4.654;2022-08-25T00:49:47;22.60;99.90
16907;DHT22;8570;52.380;4.654;2022-08-25T00:54:52;22.60;99.90
16907;DHT22;8570;52.380;4.654;2022-08-25T00:59:56;22.60;99.90
16907;DHT22;8570;52.380;4.654;2022-08-25T01:04:58;22.50;99.90
16907;DHT22;8570;52.380;4.654;2022-08-25T01:10:01;22.50;99.90
16907;DHT22;8570;52.380;4.654;2022-08-25T01:15:07;22.40;99.90
16907;DHT22;8570;52.380;4.654;2022-08-25T01:20:10;22.40;99.90
16907;DHT22;8570;52.380;4.654;2022-08-25T01:25:23;22.40;99.90
16907;DHT22;8570;52.380;4.654;2022-08-25T01:30:26;22.40;99.90
16907;DHT22;8570;52.380;4.654;2022-08-25T01:35:28;22.30;99.90
16907;DHT22;8570;52.380;4.654;2022-08-25T01:40:31;22.30;99.90
16907;DHT22;8570;52.380;4.654;2022-08-25T01:45:34;22.20;99.90
16907;DHT22;8570;52.380;4.654;2022-08-25T01:50:38;22.20;99.90
16907;DHT22;8570;52.380;4.654;2022-08-25T01:55:41;22.20;99.90
16907;DHT22;8570;52.380;4.654;2022-08-25T02:00:54;22.10;99.90
16907;DHT22;8570;52.380;4.654;2022-08-25T02:05:59;22.10;99.90
16907;DHT22;8570;52.380;4.654;2022-08-25T02:11:03;22.00;99.90
16907;DHT22;8570;52.380;4.654;2022-08-25T02:16:06;22.00;99.90
16907;DHT22;8570;52.380;4.654;2022-08-25T02:21:09;22.00;99.90
16907;DHT22;8570;52.380;4.654;2022-08-25T02:26:13;21.90;99.90
16907;DHT22;8570;52.380;4.654;2022-08-25T02:31:17;21.90;99.90
16907;DHT22;8570;52.380;4.654;2022-08-25T02:36:20;21.90;99.90
16907;DHT22;8570;52.380;4.654;2022-08-25T02:41:24;21.90;99.90
16907;DHT22;8570;52.380;4.654;2022-08-25T02:46:27;21.80;99.90
16907;DHT22;8570;52.380;4.654;2022-08-25T02:51:29;21.80;99.90
16907;DHT22;8570;52.380;4.654;2022-08-25T02:56:33;21.80;99.90
16907;DHT22;8570;52.380;4.654;2022-08-25T03:01:35;21.70;99.90
16907;DHT22;8570;52.380;4.654;2022-08-25T03:06:37;21.70;99.90
16907;DHT22;8570;52.380;4.654;2022-08-25T03:11:40;21.70;99.90
16907;DHT22;8570;52.380;4.654;2022-08-25T03:16:42;21.60;99.90
16907;DHT22;8570;52.380;4.654;2022-08-25T03:21:44;21.60;99.90
16907;DHT22;8570;52.380;4.654;2022-08-25T03:26:47;21.50;99.90
16907;DHT22;8570;52.380;4.654;2022-08-25T03:31:56;21.50;99.90
16907;DHT22;8570;52.380;4.654;2022-08-25T03:36:59;21.50;99.90
16907;DHT22;8570;52.380;4.654;2022-08-25T03:42:03;21.50;99.90
16907;DHT22;8570;52.380;4.654;2022-08-25T03:47:05;21.40;99.90
16907;DHT22;8570;52.380;4.654;2022-08-25T03:52:07;21.40;99.90
16907;DHT22;8570;52.380;4.654;2022-08-25T03:57:10;21.40;99.90
16907;DHT22;8570;52.380;4.654;2022-08-25T04:02:12;21.30;99.90
16907;DHT22;8570;52.380;4.654;2022-08-25T04:07:14;21.30;99.90
16907;DHT22;8570;52.380;4.654;2022-08-25T04:12:17;21.20;99.90
16907;DHT22;8570;52.380;4.654;2022-08-25T04:17:19;21.20;99.90
16907;DHT22;8570;52.380;4.654;2022-08-25T04:22:22;21.20;99.90
16907;DHT22;8570;52.380;4.654;2022-08-25T04:27:25;21.10;99.90
16907;DHT22;8570;52.380;4.654;2022-08-25T04:32:27;21.10;99.90
16907;DHT22;8570;52.380;4.654;2022-08-25T04:37:29;21.10;99.90
16907;DHT22;8570;52.380;4.654;2022-08-25T04:42:32;21.00;99.90
16907;DHT22;8570;52.380;4.654;2022-08-25T04:47:36;21.00;99.90
16907;DHT22;8570;52.380;4.654;2022-08-25T04:52:38;21.00;99.90
16907;DHT22;8570;52.380;4.654;2022-08-25T04:57:41;20.90;99.90
16907;DHT22;8570;52.380;4.654;2022-08-25T05:02:43;20.90;99.90
16907;DHT22;8570;52.380;4.654;2022-08-25T05:07:45;20.90;99.90
16907;DHT22;8570;52.380;4.654;2022-08-25T05:12:49;20.80;99.90
16907;DHT22;8570;52.380;4.654;2022-08-25T05:17:51;20.80;99.90
16907;DHT22;8570;52.380;4.654;2022-08-25T05:22:52;20.80;99.90
16907;DHT22;8570;52.380;4.654;2022-08-25T05:27:56;20.80;99.90
16907;DHT22;8570;52.380;4.654;2022-08-25T05:32:58;20.70;99.90
16907;DHT22;8570;52.380;4.654;2022-08-25T05:38:00;20.70;99.90
16907;DHT22;8570;52.380;4.654;2022-08-25T05:43:04;20.70;99.90
16907;DHT22;8570;52.380;4.654;2022-08-25T05:48:06;20.70;99.90
16907;DHT22;8570;52.380;4.654;2022-08-25T05:53:08;20.70;99.90
16907;DHT22;8570;52.380;4.654;2022-08-25T05:58:12;20.70;99.90
16907;DHT22;8570;52.380;4.654;2022-08-25T06:03:13;20.70;99.90
16907;DHT22;8570;52.380;4.654;2022-08-25T06:08:15;20.70;99.90
16907;DHT22;8570;52.380;4.654;2022-08-25T06:13:19;20.70;99.90
16907;DHT22;8570;52.380;4.654;2022-08-25T06:18:21;20.80;99.90
16907;DHT22;8570;52.380;4.654;2022-08-25T06:23:22;20.80;99.90
16907;DHT22;8570;52.380;4.654;2022-08-25T06:28:26;20.90;99.90
16907;DHT22;8570;52.380;4.654;2022-08-25T06:33:28;21.00;99.90
16907;DHT22;8570;52.380;4.654;2022-08-25T06:38:30;21.00;99.90
16907;DHT22;8570;52.380;4.654;2022-08-25T06:43:33;21.20;99.90
16907;DHT22;8570;52.380;4.654;2022-08-25T06:48:35;21.20;99.90
16907;DHT22;8570;52.380;4.654;2022-08-25T06:53:37;21.20;99.90
16907;DHT22;8570;52.380;4.654;2022-08-25T06:58:41;21.30;99.90
16907;DHT22;8570;52.380;4.654;2022-08-25T07:03:43;21.40;99.90
16907;DHT22;8570;52.380;4.654;2022-08-25T07:08:46;21.50;99.90
16907;DHT22;8570;52.380;4.654;2022-08-25T07:13:50;21.60;99.90
16907;DHT22;8570;52.380;4.654;2022-08-25T07:18:52;21.70;99.90
16907;DHT22;8570;52.380;4.654;2022-08-25T07:23:56;21.90;99.90
16907;DHT22;8570;52.380;4.654;2022-08-25T07:29:02;22.00;99.90
16907;DHT22;8570;52.380;4.654;2022-08-25T07:34:04;22.20;99.90
16907;DHT22;8570;52.380;4.654;2022-08-25T07:39:26;22.30;99.90
16907;DHT22;8570;52.380;4.654;2022-08-25T07:44:29;22.40;99.90
16907;DHT22;8570;52.380;4.654;2022-08-25T07:49:31;22.50;99.90
16907;DHT22;8570;52.380;4.654;2022-08-25T07:54:34;22.60;99.90
16907;DHT22;8570;52.380;4.654;2022-08-25T07:59:40;22.70;99.90
16907;DHT22;8570;52.380;4.654;2022-08-25T08:04:42;22.90;99.90
16907;DHT22;8570;52.380;4.654;2022-08-25T08:09:45;23.00;99.90
16907;DHT22;8570;52.380;4.654;2022-08-25T08:14:49;23.20;99.90
16907;DHT22;8570;52.380;4.654;2022-08-25T08:19:51;23.40;99.90
16907;DHT22;8570;52.380;4.654;2022-08-25T08:24:53;23.60;99.90
16907;DHT22;8570;52.380;4.654;2022-08-25T08:29:57;23.80;99.90
16907;DHT22;8570;52.380;4.654;2022-08-25T08:35:08;23.90;99.90
16907;DHT22;8570;52.380;4.654;2022-08-25T08:40:14;24.20;99.90
16907;DHT22;8570;52.380;4.654;2022-08-25T08:45:36;24.50;99.90
16907;DHT22;8570;52.380;4.654;2022-08-25T08:50:50;24.90;99.90
16907;DHT22;8570;52.380;4.654;2022-08-25T08:56:00;25.30;99.90
16907;DHT22;8570;52.380;4.654;2022-08-25T09:01:05;25.80;99.90
16907;DHT22;8570;52.380;4.654;2022-08-25T09:06:11;26.20;99.90
16907;DHT22;8570;52.380;4.654;2022-08-25T09:11:22;26.70;99.90
16907;DHT22;8570;52.380;4.654;2022-08-25T09:16:38;27.20;99.90
16907;DHT22;8570;52.380;4.654;2022-08-25T09:22:05;27.70;99.90
16907;DHT22;8570;52.380;4.654;2022-08-25T09:27:16;28.10;99.20
16907;DHT22;8570;52.380;4.654;2022-08-25T09:32:21;28.50;99.00
16907;DHT22;8570;52.380;4.654;2022-08-25T09:37:23;28.90;97.00
16907;DHT22;8570;52.380;4.654;2022-08-25T09:42:47;29.10;95.70
16907;DHT22;8570;52.380;4.654;2022-08-25T09:47:50;29.30;94.90
16907;DHT22;8570;52.380;4.654;2022-08-25T09:52:52;29.50;93.60
16907;DHT22;8570;52.380;4.654;2022-08-25T09:57:55;29.50;93.80
16907;DHT22;8570;52.380;4.654;2022-08-25T10:03:10;29.70;93.00
16907;DHT22;8570;52.380;4.654;2022-08-25T10:08:22;29.80;91.20
16907;DHT22;8570;52.380;4.654;2022-08-25T10:13:40;29.80;90.50
16907;DHT22;8570;52.380;4.654;2022-08-25T10:18:44;29.80;90.50
16907;DHT22;8570;52.380;4.654;2022-08-25T10:23:48;29.80;91.70
16907;DHT22;8570;52.380;4.654;2022-08-25T10:29:02;30.10;88.70
16907;DHT22;8570;52.380;4.654;2022-08-25T10:34:18;30.40;87.30
16907;DHT22;8570;52.380;4.654;2022-08-25T10:39:44;30.70;88.90
16907;DHT22;8570;52.380;4.654;2022-08-25T10:45:10;31.20;88.60
16907;DHT22;8570;52.380;4.654;2022-08-25T10:50:40;31.60;87.30
16907;DHT22;8570;52.380;4.654;2022-08-25T10:55:50;32.10;84.40
16907;DHT22;8570;52.380;4.654;2022-08-25T11:01:05;32.30;81.60
16907;DHT22;8570;52.380;4.654;2022-08-25T11:06:16;32.50;77.40
16907;DHT22;8570;52.380;4.654;2022-08-25T11:11:23;32.50;75.80
16907;DHT22;8570;52.380;4.654;2022-08-25T11:16:34;32.60;74.80
16907;DHT22;8570;52.380;4.654;2022-08-25T11:21:46;32.60;73.40
16907;DHT22;8570;52.380;4.654;2022-08-25T11:26:54;32.70;74.50
16907;DHT22;8570;52.380;4.654;2022-08-25T11:31:58;32.80;74.10
16907;DHT22;8570;52.380;4.654;2022-08-25T11:37:06;32.90;73.90
16907;DHT22;8570;52.380;4.654;2022-08-25T11:42:18;33.00;74.40
16907;DHT22;8570;52.380;4.654;2022-08-25T11:47:54;33.00;72.30
16907;DHT22;8570;52.380;4.654;2022-08-25T11:53:17;32.90;71.60
16907;DHT22;8570;52.380;4.654;2022-08-25T11:58:41;32.60;72.70
16907;DHT22;8570;52.380;4.654;2022-08-25T12:04:08;32.60;74.60
16907;DHT22;8570;52.380;4.654;2022-08-25T12:09:20;32.60;75.50
16907;DHT22;8570;52.380;4.654;2022-08-25T12:14:50;32.80;73.50
16907;DHT22;8570;52.380;4.654;2022-08-25T12:19:57;33.00;74.80
16907;DHT22;8570;52.380;4.654;2022-08-25T12:25:05;33.20;74.30
16907;DHT22;8570;52.380;4.654;2022-08-25T12:30:16;33.40;73.30
16907;DHT22;8570;52.380;4.654;2022-08-25T12:35:30;33.40;73.10
16907;DHT22;8570;52.380;4.654;2022-08-25T12:40:37;33.50;74.50
16907;DHT22;8570;52.380;4.654;2022-08-25T12:45:43;33.60;73.00
16907;DHT22;8570;52.380;4.654;2022-08-25T12:50:55;33.60;73.80
16907;DHT22;8570;52.380;4.654;2022-08-25T12:56:04;33.50;73.50
16907;DHT22;8570;52.380;4.654;2022-08-25T13:01:25;33.40;74.30
16907;DHT22;8570;52.380;4.654;2022-08-25T13:06:54;33.40;74.40
16907;DHT22;8570;52.380;4.654;2022-08-25T13:12:12;33.50;76.20
16907;DHT22;8570;52.380;4.654;2022-08-25T13:17:25;33.50;75.00
16907;DHT22;8570;52.380;4.654;2022-08-25T13:22:28;33.30;76.60
16907;DHT22;8570;52.380;4.654;2022-08-25T13:27:33;33.10;77.10
16907;DHT22;8570;52.380;4.654;2022-08-25T13:32:36;32.80;78.90
16907;DHT22;8570;52.380;4.654;2022-08-25T13:37:38;32.80;80.10
16907;DHT22;8570;52.380;4.654;2022-08-25T13:42:46;32.60;79.60
16907;DHT22;8570;52.380;4.654;2022-08-25T13:47:49;32.60;79.80
16907;DHT22;8570;52.380;4.654;2022-08-25T13:52:53;32.70;78.80
16907;DHT22;8570;52.380;4.654;2022-08-25T13:57:58;32.70;79.40
16907;DHT22;8570;52.380;4.654;2022-08-25T14:03:03;32.60;78.20
16907;DHT22;8570;52.380;4.654;2022-08-25T14:08:06;32.60;79.90
16907;DHT22;8570;52.380;4.654;2022-08-25T14:13:14;32.60;80.00
16907;DHT22;8570;52.380;4.654;2022-08-25T14:18:19;32.80;80.10
16907;DHT22;8570;52.380;4.654;2022-08-25T14:23:24;32.80;79.50
16907;DHT22;8570;52.380;4.654;2022-08-25T14:28:28;32.90;79.70
16907;DHT22;8570;52.380;4.654;2022-08-25T14:33:34;32.90;81.10
16907;DHT22;8570;52.380;4.654;2022-08-25T14:38:38;33.00;82.10
16907;DHT22;8570;52.380;4.654;2022-08-25T14:43:46;32.90;83.20
16907;DHT22;8570;52.380;4.654;2022-08-25T14:48:50;32.80;84.50
16907;DHT22;8570;52.380;4.654;2022-08-25T14:53:57;32.60;84.00
16907;DHT22;8570;52.380;4.654;2022-08-25T14:59:02;32.50;83.20
16907;DHT22;8570;52.380;4.654;2022-08-25T15:04:08;32.40;84.00
16907;DHT22;8570;52.380;4.654;2022-08-25T15:09:14;32.30;86.90
16907;DHT22;8570;52.380;4.654;2022-08-25T15:14:19;31.90;89.50
16907;DHT22;8570;52.380;4.654;2022-08-25T15:19:25;31.30;90.70
16907;DHT22;8570;52.380;4.654;2022-08-25T15:24:29;30.70;91.90
16907;DHT22;8570;52.380;4.654;2022-08-25T15:29:33;30.20;93.10
16907;DHT22;8570;52.380;4.654;2022-08-25T15:34:36;29.70;93.90
16907;DHT22;8570;52.380;4.654;2022-08-25T15:39:40;29.30;94.70
16907;DHT22;8570;52.380;4.654;2022-08-25T15:44:44;29.10;95.40
16907;DHT22;8570;52.380;4.654;2022-08-25T15:49:45;29.10;96.00
16907;DHT22;8570;52.380;4.654;2022-08-25T15:54:47;29.00;96.30
16907;DHT22;8570;52.380;4.654;2022-08-25T15:59:50;28.90;96.40
16907;DHT22;8570;52.380;4.654;2022-08-25T16:04:52;28.80;96.80
16907;DHT22;8570;52.380;4.654;2022-08-25T16:09:55;28.60;96.90
16907;DHT22;8570;52.380;4.654;2022-08-25T16:14:58;28.40;96.90
16907;DHT22;8570;52.380;4.654;2022-08-25T16:20:00;28.20;97.40
16907;DHT22;8570;52.380;4.654;2022-08-25T16:25:02;28.00;97.70
16907;DHT22;8570;52.380;4.654;2022-08-25T16:30:08;28.00;97.90
16907;DHT22;8570;52.380;4.654;2022-08-25T16:35:11;27.90;98.10
16907;DHT22;8570;52.380;4.654;2022-08-25T16:40:13;27.80;98.30
16907;DHT22;8570;52.380;4.654;2022-08-25T16:45:19;27.70;98.50
16907;DHT22;8570;52.380;4.654;2022-08-25T16:50:21;27.60;98.70
16907;DHT22;8570;52.380;4.654;2022-08-25T16:55:23;27.50;98.70
16907;DHT22;8570;52.380;4.654;2022-08-25T17:00:30;27.40;99.00
16907;DHT22;8570;52.380;4.654;2022-08-25T17:05:38;27.30;99.10
16907;DHT22;8570;52.380;4.654;2022-08-25T17:10:41;27.10;99.20
16907;DHT22;8570;52.380;4.654;2022-08-25T17:15:46;26.90;99.40
16907;DHT22;8570;52.380;4.654;2022-08-25T17:20:57;26.70;99.80
16907;DHT22;8570;52.380;4.654;2022-08-25T17:25:59;26.50;99.90
16907;DHT22;8570;52.380;4.654;2022-08-25T17:31:03;26.30;99.90
16907;DHT22;8570;52.380;4.654;2022-08-25T17:36:06;26.10;99.90
16907;DHT22;8570;52.380;4.654;2022-08-25T17:41:09;25.90;99.90
16907;DHT22;8570;52.380;4.654;2022-08-25T17:46:13;25.70;99.90
16907;DHT22;8570;52.380;4.654;2022-08-25T17:51:15;25.50;99.90
16907;DHT22;8570;52.380;4.654;2022-08-25T17:56:19;25.40;99.90
16907;DHT22;8570;52.380;4.654;2022-08-25T18:01:24;25.40;99.90
16907;DHT22;8570;52.380;4.654;2022-08-25T18:06:27;25.20;99.90
16907;DHT22;8570;52.380;4.654;2022-08-25T18:11:31;25.10;99.90
16907;DHT22;8570;52.380;4.654;2022-08-25T18:16:34;25.00;99.90
16907;DHT22;8570;52.380;4.654;2022-08-25T18:21:36;24.80;99.90
16907;DHT22;8570;52.380;4.654;2022-08-25T18:26:38;24.70;99.90
16907;DHT22;8570;52.380;4.654;2022-08-25T18:31:42;24.60;99.90
16907;DHT22;8570;52.380;4.654;2022-08-25T18:36:44;24.40;99.90
16907;DHT22;8570;52.380;4.654;2022-08-25T18:41:45;24.20;99.90
16907;DHT22;8570;52.380;4.654;2022-08-25T18:46:49;24.00;99.90
16907;DHT22;8570;52.380;4.654;2022-08-25T18:51:51;23.90;99.90
16907;DHT22;8570;52.380;4.654;2022-08-25T18:56:52;23.80;99.90
16907;DHT22;8570;52.380;4.654;2022-08-25T19:01:57;23.60;99.90
16907;DHT22;8570;52.380;4.654;2022-08-25T19:06:59;23.50;99.90
16907;DHT22;8570;52.380;4.654;2022-08-25T19:12:02;23.40;99.90
16907;DHT22;8570;52.380;4.654;2022-08-25T19:17:06;23.30;99.90
16907;DHT22;8570;52.380;4.654;2022-08-25T19:22:09;23.30;99.90
16907;DHT22;8570;52.380;4.654;2022-08-25T19:27:11;23.20;99.90
16907;DHT22;8570;52.380;4.654;2022-08-25T19:32:14;23.00;99.90
16907;DHT22;8570;52.380;4.654;2022-08-25T19:37:16;23.00;99.90
16907;DHT22;8570;52.380;4.654;2022-08-25T19:42:19;23.00;99.90
16907;DHT22;8570;52.380;4.654;2022-08-25T19:47:22;22.90;99.90
16907;DHT22;8570;52.380;4.654;2022-08-25T19:52:25;22.90;99.90
16907;DHT22;8570;52.380;4.654;2022-08-25T19:57:28;22.80;99.90
16907;DHT22;8570;52.380;4.654;2022-08-25T20:02:32;22.70;99.90
16907;DHT22;8570;52.380;4.654;2022-08-25T20:07:34;22.60;99.90
16907;DHT22;8570;52.380;4.654;2022-08-25T20:12:36;22.60;99.90
16907;DHT22;8570;52.380;4.654;2022-08-25T20:17:39;22.50;99.90
16907;DHT22;8570;52.380;4.654;2022-08-25T20:22:42;22.50;99.90
16907;DHT22;8570;52.380;4.654;2022-08-25T20:27:45;22.40;99.90
16907;DHT22;8570;52.380;4.654;2022-08-25T20:32:49;22.40;99.90
16907;DHT22;8570;52.380;4.654;2022-08-25T20:37:51;22.30;99.90
16907;DHT22;8570;52.380;4.654;2022-08-25T20:42:53;22.30;99.90
16907;DHT22;8570;52.380;4.654;2022-08-25T20:47:57;22.30;99.90
16907;DHT22;8570;52.380;4.654;2022-08-25T20:52:59;22.20;99.90
16907;DHT22;8570;52.380;4.654;2022-08-25T20:58:01;22.20;99.90
16907;DHT22;8570;52.380;4.654;2022-08-25T21:03:05;22.10;99.90
16907;DHT22;8570;52.380;4.654;2022-08-25T21:08:07;22.10;99.90
16907;DHT22;8570;52.380;4.654;2022-08-25T21:13:09;22.00;99.90
16907;DHT22;8570;52.380;4.654;2022-08-25T21:18:15;21.90;99.90
16907;DHT22;8570;52.380;4.654;2022-08-25T21:23:17;21.90;99.90
16907;DHT22;8570;52.380;4.654;2022-08-25T21:28:19;21.80;99.90
16907;DHT22;8570;52.380;4.654;2022-08-25T21:33:23;21.70;99.90
16907;DHT22;8570;52.380;4.654;2022-08-25T21:38:33;21.70;99.90
16907;DHT22;8570;52.380;4.654;2022-08-25T21:43:35;21.60;99.90
16907;DHT22;8570;52.380;4.654;2022-08-25T21:48:42;21.60;99.90
16907;DHT22;8570;52.380;4.654;2022-08-25T21:53:44;21.50;99.90
16907;DHT22;8570;52.380;4.654;2022-08-25T21:58:46;21.50;99.90
16907;DHT22;8570;52.380;4.654;2022-08-25T22:03:55;21.50;99.90
16907;DHT22;8570;52.380;4.654;2022-08-25T22:09:00;21.40;99.90
16907;DHT22;8570;52.380;4.654;2022-08-25T22:14:05;21.40;99.90
16907;DHT22;8570;52.380;4.654;2022-08-25T22:19:11;21.40;99.90
16907;DHT22;8570;52.380;4.654;2022-08-25T22:24:13;21.40;99.90
16907;DHT22;8570;52.380;4.654;2022-08-25T22:29:18;21.40;99.90
16907;DHT22;8570;52.380;4.654;2022-08-25T22:34:24;21.40;99.90
16907;DHT22;8570;52.380;4.654;2022-08-25T22:39:26;21.40;99.90
16907;DHT22;8570;52.380;4.654;2022-08-25T22:44:28;21.40;99.90
16907;DHT22;8570;52.380;4.654;2022-08-25T22:49:32;21.30;99.90
16907;DHT22;8570;52.380;4.654;2022-08-25T22:54:35;21.30;99.90
16907;DHT22;8570;52.380;4.654;2022-08-25T22:59:37;21.30;99.90
16907;DHT22;8570;52.380;4.654;2022-08-25T23:04:41;21.30;99.90
16907;DHT22;8570;52.380;4.654;2022-08-25T23:09:43;21.20;99.90
16907;DHT22;8570;52.380;4.654;2022-08-25T23:14:45;21.30;99.90
16907;DHT22;8570;52.380;4.654;2022-08-25T23:19:50;21.20;99.90
16907;DHT22;8570;52.380;4.654;2022-08-25T23:24:52;21.30;99.90
16907;DHT22;8570;52.380;4.654;2022-08-25T23:29:54;21.20;99.90
16907;DHT22;8570;52.380;4.654;2022-08-25T23:34:58;21.20;99.90
16907;DHT22;8570;52.380;4.654;2022-08-25T23:39:59;21.30;99.90
16907;DHT22;8570;52.380;4.654;2022-08-25T23:45:02;21.20;99.90
16907;DHT22;8570;52.380;4.654;2022-08-25T23:50:06;21.20;99.90
16907;DHT22;8570;52.380;4.654;2022-08-25T23:55:09;21.20;99.90
